sensor_id;sensor_type;location;lat;lon;timestamp;pressure;altitude;pressure_sealevel;temperature;humidity
31585;BME280;18191;51.288;12.390;2023-03-26T00:00:01;49064.53;;;-144.47;71.17
31585;BME280;18191;51.288;12.390;2023-03-26T00:04:52;49058.56;;;-144.47;71.54
31585;BME280;18191;51.288;12.390;2023-03-26T00:09:43;49060.56;;;-144.47;71.51
31585;BME280;18191;51.288;12.390;2023-03-26T00:14:33;49048.63;;;-144.47;72.94
31585;BME280;18191;51.288;12.390;2023-03-26T00:19:24;49092.38;;;-144.47;74.43
31585;BME280;18191;51.288;12.390;2023-03-26T00:24:14;49068.50;;;-144.47;76.61
31585;BME280;18191;51.288;12.390;2023-03-26T00:29:05;49056.59;;;-144.47;76.79
31585;BME280;18191;51.288;12.390;2023-03-26T00:33:57;49102.34;;;-144.47;76.65
31585;BME280;18191;51.288;12.390;2023-03-26T00:38:48;49082.44;;;-144.47;76.79
31585;BME280;18191;51.288;12.390;2023-03-26T00:43:38;49064.53;;;-144.47;77.17
31585;BME280;18191;51.288;12.390;2023-03-26T00:48:28;49114.28;;;-144.47;76.97
31585;BME280;18191;51.288;12.390;2023-03-26T00:53:19;49080.44;;;-144.47;76.03
31585;BME280;18191;51.288;12.390;2023-03-26T00:58:10;49076.47;;;-144.47;75.77
31585;BME280;18191;51.288;12.390;2023-03-26T01:03:01;49106.31;;;-144.47;75.03
31585;BME280;18191;51.288;12.390;2023-03-26T01:07:51;49094.38;;;-144.47;76.49
31585;BME280;18191;51.288;12.390;2023-03-26T01:12:41;49076.47;;;-144.47;76.10
31585;BME280;18191;51.288;12.390;2023-03-26T01:17:32;49056.59;;;-144.47;76.45
31585;BME280;18191;51.288;12.390;2023-03-26T01:22:24;49100.34;;;-144.47;76.93
31585;BME280;18191;51.288;12.390;2023-03-26T01:27:19;49104.31;;;-144.47;76.90
31585;BME280;18191;51.288;12.390;2023-03-26T01:32:35;49078.47;;;-144.47;77.70
31585;BME280;18191;51.288;12.390;2023-03-26T01:37:37;49076.47;;;-144.47;76.48
31585;BME280;18191;51.288;12.390;2023-03-26T01:42:32;49086.41;;;-144.47;76.42
31585;BME280;18191;51.288;12.390;2023-03-26T01:47:25;49060.56;;;-144.47;76.28
31585;BME280;18191;51.288;12.390;2023-03-26T01:52:18;49100.34;;;-144.47;77.51
31585;BME280;18191;51.288;12.390;2023-03-26T01:57:32;49068.50;;;-144.47;76.88
31585;BME280;18191;51.288;12.390;2023-03-26T02:07:15;49084.44;;;-144.47;76.32
31585;BME280;18191;51.288;12.390;2023-03-26T02:12:07;49100.34;;;-144.47;77.07
31585;BME280;18191;51.288;12.390;2023-03-26T02:16:58;49100.34;;;-144.47;76.64
31585;BME280;18191;51.288;12.390;2023-03-26T02:21:49;49064.53;;;-144.47;76.37
31585;BME280;18191;51.288;12.390;2023-03-26T02:26:40;49108.31;;;-144.47;77.37
31585;BME280;18191;51.288;12.390;2023-03-26T02:31:30;49064.53;;;-144.47;76.93
31585;BME280;18191;51.288;12.390;2023-03-26T02:36:20;49080.44;;;-144.47;78.27
31585;BME280;18191;51.288;12.390;2023-03-26T02:41:16;49096.38;;;-144.47;77.72
31585;BME280;18191;51.288;12.390;2023-03-26T02:46:06;49068.50;;;-144.47;78.40
31585;BME280;18191;51.288;12.390;2023-03-26T02:50:56;49084.44;;;-144.47;79.29
31585;BME280;18191;51.288;12.390;2023-03-26T02:55:46;49080.44;;;-144.47;79.59
31585;BME280;18191;51.288;12.390;2023-03-26T03:00:36;49110.28;;;-144.47;81.25
31585;BME280;18191;51.288;12.390;2023-03-26T03:05:27;49088.41;;;-144.47;80.82
31585;BME280;18191;51.288;12.390;2023-03-26T03:10:20;49074.47;;;-144.47;80.58
31585;BME280;18191;51.288;12.390;2023-03-26T03:15:11;49076.47;;;-144.47;80.19
31585;BME280;18191;51.288;12.390;2023-03-26T03:20:01;49108.31;;;-144.47;79.89
31585;BME280;18191;51.288;12.390;2023-03-26T03:24:51;49060.56;;;-144.47;79.65
31585;BME280;18191;51.288;12.390;2023-03-26T03:29:41;49072.50;;;-144.47;78.75
31585;BME280;18191;51.288;12.390;2023-03-26T03:34:31;49088.41;;;-144.47;80.10
31585;BME280;18191;51.288;12.390;2023-03-26T03:39:22;49076.47;;;-144.47;78.77
31585;BME280;18191;51.288;12.390;2023-03-26T03:44:12;49076.47;;;-144.47;78.99
31585;BME280;18191;51.288;12.390;2023-03-26T03:49:02;49116.25;;;-144.47;79.33
31585;BME280;18191;51.288;12.390;2023-03-26T03:53:52;49104.31;;;-144.47;78.36
31585;BME280;18191;51.288;12.390;2023-03-26T03:58:44;49052.59;;;-144.47;78.34
31585;BME280;18191;51.288;12.390;2023-03-26T04:03:35;49074.47;;;-144.47;78.70
31585;BME280;18191;51.288;12.390;2023-03-26T04:08:27;49088.41;;;-144.47;78.13
31585;BME280;18191;51.288;12.390;2023-03-26T04:13:17;49120.25;;;-144.47;78.50
31585;BME280;18191;51.288;12.390;2023-03-26T04:18:09;49100.34;;;-144.47;77.21
31585;BME280;18191;51.288;12.390;2023-03-26T04:23:00;49080.44;;;-144.47;77.22
31585;BME280;18191;51.288;12.390;2023-03-26T04:27:50;49084.44;;;-144.47;75.93
31585;BME280;18191;51.288;12.390;2023-03-26T04:32:41;49108.31;;;-144.47;76.31
31585;BME280;18191;51.288;12.390;2023-03-26T04:37:38;49036.69;;;-144.47;76.00
31585;BME280;18191;51.288;12.390;2023-03-26T04:42:29;49060.56;;;-144.47;76.34
31585;BME280;18191;51.288;12.390;2023-03-26T04:47:23;49084.44;;;-144.47;77.70
31585;BME280;18191;51.288;12.390;2023-03-26T04:52:13;49056.59;;;-144.47;77.97
31585;BME280;18191;51.288;12.390;2023-03-26T04:57:07;49104.31;;;-144.47;77.12
31585;BME280;18191;51.288;12.390;2023-03-26T05:02:01;49064.53;;;-144.47;76.80
31585;BME280;18191;51.288;12.390;2023-03-26T05:06:53;49064.53;;;-144.47;75.66
31585;BME280;18191;51.288;12.390;2023-03-26T05:11:43;49066.53;;;-144.47;75.77
31585;BME280;18191;51.288;12.390;2023-03-26T05:16:33;49062.56;;;-144.47;74.88
31585;BME280;18191;51.288;12.390;2023-03-26T05:21:23;49086.41;;;-144.47;74.84
31585;BME280;18191;51.288;12.390;2023-03-26T05:26:14;49076.47;;;-144.47;76.00
31585;BME280;18191;51.288;12.390;2023-03-26T05:31:04;49064.53;;;-144.47;75.07
31585;BME280;18191;51.288;12.390;2023-03-26T05:36:05;49104.31;;;-144.47;74.17
31585;BME280;18191;51.288;12.390;2023-03-26T05:40:59;49064.53;;;-144.47;76.01
31585;BME280;18191;51.288;12.390;2023-03-26T05:45:50;49072.50;;;-144.47;75.12
31585;BME280;18191;51.288;12.390;2023-03-26T05:50:40;49114.28;;;-144.47;74.49
31585;BME280;18191;51.288;12.390;2023-03-26T05:55:30;49080.44;;;-144.47;74.17
31585;BME280;18191;51.288;12.390;2023-03-26T06:00:22;49100.34;;;-144.47;74.17
31585;BME280;18191;51.288;12.390;2023-03-26T06:05:13;49104.31;;;-144.47;72.98
31585;BME280;18191;51.288;12.390;2023-03-26T06:10:03;49088.41;;;-144.47;73.33
31585;BME280;18191;51.288;12.390;2023-03-26T06:14:53;49064.53;;;-144.47;72.72
31585;BME280;18191;51.288;12.390;2023-03-26T06:19:43;49088.41;;;-144.47;72.48
31585;BME280;18191;51.288;12.390;2023-03-26T06:24:34;49048.63;;;-144.47;71.02
31585;BME280;18191;51.288;12.390;2023-03-26T06:29:24;49100.34;;;-144.47;71.57
31585;BME280;18191;51.288;12.390;2023-03-26T06:34:14;49112.28;;;-144.47;72.17
31585;BME280;18191;51.288;12.390;2023-03-26T06:39:04;49060.56;;;-144.47;71.19
31585;BME280;18191;51.288;12.390;2023-03-26T06:43:55;49048.63;;;-144.47;70.79
31585;BME280;18191;51.288;12.390;2023-03-26T06:48:45;49060.56;;;-144.47;70.20
31585;BME280;18191;51.288;12.390;2023-03-26T06:53:35;49064.53;;;-144.47;70.27
31585;BME280;18191;51.288;12.390;2023-03-26T06:58:26;49054.59;;;-144.47;70.29
31585;BME280;18191;51.288;12.390;2023-03-26T07:03:16;49072.50;;;-144.47;69.90
31585;BME280;18191;51.288;12.390;2023-03-26T07:08:06;49084.44;;;-144.47;70.22
31585;BME280;18191;51.288;12.390;2023-03-26T07:12:56;49052.59;;;-144.47;70.23
31585;BME280;18191;51.288;12.390;2023-03-26T07:17:46;49046.63;;;-144.47;69.41
31585;BME280;18191;51.288;12.390;2023-03-26T07:22:37;49064.53;;;-144.47;68.53
31585;BME280;18191;51.288;12.390;2023-03-26T07:27:33;49078.47;;;-144.47;67.06
31585;BME280;18191;51.288;12.390;2023-03-26T07:32:32;49056.59;;;-144.47;65.26
31585;BME280;18191;51.288;12.390;2023-03-26T07:37:39;49056.59;;;-144.47;64.83
31585;BME280;18191;51.288;12.390;2023-03-26T07:42:36;49080.44;;;-144.47;63.85
31585;BME280;18191;51.288;12.390;2023-03-26T07:47:31;49076.47;;;-144.47;64.28
31585;BME280;18191;51.288;12.390;2023-03-26T07:52:23;49068.50;;;-144.47;64.97
31585;BME280;18191;51.288;12.390;2023-03-26T08:02:13;49044.66;;;-144.47;62.95
31585;BME280;18191;51.288;12.390;2023-03-26T08:12:13;49008.84;;;-144.47;62.34
31585;BME280;18191;51.288;12.390;2023-03-26T08:27:18;49056.59;;;-144.47;60.52
31585;BME280;18191;51.288;12.390;2023-03-26T08:32:12;49068.50;;;-144.47;58.84
31585;BME280;18191;51.288;12.390;2023-03-26T08:37:03;49044.66;;;-144.47;58.81
31585;BME280;18191;51.288;12.390;2023-03-26T09:17:01;49066.53;;;-144.47;52.75
31585;BME280;18191;51.288;12.390;2023-03-26T09:22:01;49056.59;;;-144.47;52.85
31585;BME280;18191;51.288;12.390;2023-03-26T09:32:01;49002.88;;;-144.47;52.08
31585;BME280;18191;51.288;12.390;2023-03-26T09:41:54;49032.72;;;-144.47;51.03
31585;BME280;18191;51.288;12.390;2023-03-26T09:52:11;49036.69;;;-144.47;51.94
31585;BME280;18191;51.288;12.390;2023-03-26T10:02:34;49054.59;;;-144.47;50.20
31585;BME280;18191;51.288;12.390;2023-03-26T10:12:44;49038.69;;;-144.47;48.42
31585;BME280;18191;51.288;12.390;2023-03-26T10:22:47;49034.69;;;-144.47;47.01
31585;BME280;18191;51.288;12.390;2023-03-26T10:27:51;49036.69;;;-144.47;45.29
31585;BME280;18191;51.288;12.390;2023-03-26T10:32:48;49044.66;;;-144.47;46.77
31585;BME280;18191;51.288;12.390;2023-03-26T10:42:49;49002.88;;;-144.47;47.32
31585;BME280;18191;51.288;12.390;2023-03-26T10:47:50;49018.78;;;-144.47;45.95
31585;BME280;18191;51.288;12.390;2023-03-26T10:58:26;49004.84;;;-144.47;42.47
31585;BME280;18191;51.288;12.390;2023-03-26T11:08:24;49032.72;;;-144.47;42.68
31585;BME280;18191;51.288;12.390;2023-03-26T11:18:40;49032.72;;;-144.47;41.39
31585;BME280;18191;51.288;12.390;2023-03-26T11:23:35;49020.78;;;-144.47;43.43
31585;BME280;18191;51.288;12.390;2023-03-26T11:28:42;49010.81;;;-144.47;43.09
31585;BME280;18191;51.288;12.390;2023-03-26T11:33:35;48992.94;;;-144.47;44.25
31585;BME280;18191;51.288;12.390;2023-03-26T11:38:31;49010.81;;;-144.47;41.78
31585;BME280;18191;51.288;12.390;2023-03-26T11:43:33;49034.69;;;-144.47;42.24
31585;BME280;18191;51.288;12.390;2023-03-26T11:48:44;49030.72;;;-144.47;44.75
31585;BME280;18191;51.288;12.390;2023-03-26T11:53:36;48981.00;;;-144.47;43.69
31585;BME280;18191;51.288;12.390;2023-03-26T11:58:36;49032.72;;;-144.47;43.61
31585;BME280;18191;51.288;12.390;2023-03-26T12:03:29;48981.00;;;-144.47;43.33
31585;BME280;18191;51.288;12.390;2023-03-26T12:08:32;49068.50;;;-144.47;43.28
31585;BME280;18191;51.288;12.390;2023-03-26T12:18:32;49024.75;;;-144.47;42.37
31585;BME280;18191;51.288;12.390;2023-03-26T12:28:27;49004.84;;;-144.47;43.91
31585;BME280;18191;51.288;12.390;2023-03-26T12:33:24;49036.69;;;-144.47;46.13
31585;BME280;18191;51.288;12.390;2023-03-26T12:38:20;49022.75;;;-144.47;64.08
31585;BME280;18191;51.288;12.390;2023-03-26T12:43:19;49038.69;;;-144.47;74.07
31585;BME280;18191;51.288;12.390;2023-03-26T12:48:13;49048.63;;;-144.47;77.67
31585;BME280;18191;51.288;12.390;2023-03-26T13:02:52;49084.44;;;-144.47;79.03
31585;BME280;18191;51.288;12.390;2023-03-26T13:12:45;49088.41;;;-144.47;73.89
31585;BME280;18191;51.288;12.390;2023-03-26T13:18:01;49010.81;;;-144.47;75.37
31585;BME280;18191;51.288;12.390;2023-03-26T13:22:59;49064.53;;;-144.47;76.89
31585;BME280;18191;51.288;12.390;2023-03-26T13:33:26;49064.53;;;-144.47;73.67
31585;BME280;18191;51.288;12.390;2023-03-26T13:38:22;49050.63;;;-144.47;72.67
31585;BME280;18191;51.288;12.390;2023-03-26T13:48:03;49060.56;;;-144.47;71.03
31585;BME280;18191;51.288;12.390;2023-03-26T13:52:59;49074.47;;;-144.47;72.81
31585;BME280;18191;51.288;12.390;2023-03-26T13:57:53;49052.59;;;-144.47;71.64
31585;BME280;18191;51.288;12.390;2023-03-26T14:02:48;49046.63;;;-144.47;71.82
31585;BME280;18191;51.288;12.390;2023-03-26T14:07:43;49060.56;;;-144.47;73.09
31585;BME280;18191;51.288;12.390;2023-03-26T14:22:35;49052.59;;;-144.47;75.40
31585;BME280;18191;51.288;12.390;2023-03-26T14:27:37;49096.38;;;-144.47;75.68
31585;BME280;18191;51.288;12.390;2023-03-26T14:48:03;49120.25;;;-144.47;80.26
31585;BME280;18191;51.288;12.390;2023-03-26T14:52:58;49102.34;;;-144.47;80.62
31585;BME280;18191;51.288;12.390;2023-03-26T14:57:53;49036.69;;;-144.47;79.13
31585;BME280;18191;51.288;12.390;2023-03-26T15:13:02;49076.47;;;-144.47;81.61
31585;BME280;18191;51.288;12.390;2023-03-26T15:18:18;49096.38;;;-144.47;80.81
31585;BME280;18191;51.288;12.390;2023-03-26T15:33:17;49108.31;;;-144.47;81.72
31585;BME280;18191;51.288;12.390;2023-03-26T15:43:22;49084.44;;;-144.47;82.03
31585;BME280;18191;51.288;12.390;2023-03-26T15:48:20;49094.38;;;-144.47;82.48
31585;BME280;18191;51.288;12.390;2023-03-26T15:58:25;49124.22;;;-144.47;82.67
31585;BME280;18191;51.288;12.390;2023-03-26T16:03:28;49088.41;;;-144.47;84.28
31585;BME280;18191;51.288;12.390;2023-03-26T16:13:36;49084.44;;;-144.47;83.13
31585;BME280;18191;51.288;12.390;2023-03-26T16:18:35;49096.38;;;-144.47;84.55
31585;BME280;18191;51.288;12.390;2023-03-26T16:33:19;49132.16;;;-144.47;84.20
31585;BME280;18191;51.288;12.390;2023-03-26T16:38:11;49094.38;;;-144.47;84.72
31585;BME280;18191;51.288;12.390;2023-03-26T16:43:22;49104.31;;;-144.47;86.30
31585;BME280;18191;51.288;12.390;2023-03-26T16:48:20;49068.50;;;-144.47;87.10
31585;BME280;18191;51.288;12.390;2023-03-26T16:53:23;49086.41;;;-144.47;86.22
31585;BME280;18191;51.288;12.390;2023-03-26T17:13:04;49092.38;;;-144.47;86.79
31585;BME280;18191;51.288;12.390;2023-03-26T17:22:50;49100.34;;;-144.47;87.33
31585;BME280;18191;51.288;12.390;2023-03-26T17:27:46;49078.47;;;-144.47;89.33
31585;BME280;18191;51.288;12.390;2023-03-26T17:32:50;49116.25;;;-144.47;90.54
31585;BME280;18191;51.288;12.390;2023-03-26T17:37:42;49140.13;;;-144.47;90.32
31585;BME280;18191;51.288;12.390;2023-03-26T17:42:34;49064.53;;;-144.47;91.71
31585;BME280;18191;51.288;12.390;2023-03-26T17:57:45;49060.56;;;-144.47;92.02
31585;BME280;18191;51.288;12.390;2023-03-26T18:02:37;49118.25;;;-144.47;93.19
31585;BME280;18191;51.288;12.390;2023-03-26T18:07:37;49156.03;;;-144.47;93.57
31585;BME280;18191;51.288;12.390;2023-03-26T18:17:30;49084.44;;;-144.47;93.26
31585;BME280;18191;51.288;12.390;2023-03-26T18:22:27;49120.25;;;-144.47;93.39
31585;BME280;18191;51.288;12.390;2023-03-26T18:27:19;49112.28;;;-144.47;94.94
31585;BME280;18191;51.288;12.390;2023-03-26T18:41:51;49068.50;;;-144.47;92.65
31585;BME280;18191;51.288;12.390;2023-03-26T18:46:43;49114.28;;;-144.47;92.82
31585;BME280;18191;51.288;12.390;2023-03-26T18:51:34;49100.34;;;-144.47;91.68
31585;BME280;18191;51.288;12.390;2023-03-26T18:56:29;49076.47;;;-144.47;91.97
31585;BME280;18191;51.288;12.390;2023-03-26T19:01:22;49080.44;;;-144.47;91.60
31585;BME280;18191;51.288;12.390;2023-03-26T19:06:14;49092.38;;;-144.47;92.43
31585;BME280;18191;51.288;12.390;2023-03-26T19:11:06;49106.31;;;-144.47;91.41
31585;BME280;18191;51.288;12.390;2023-03-26T19:15:57;49082.44;;;-144.47;91.26
31585;BME280;18191;51.288;12.390;2023-03-26T19:20:48;49104.31;;;-144.47;90.99
31585;BME280;18191;51.288;12.390;2023-03-26T19:25:41;49120.25;;;-144.47;90.59
31585;BME280;18191;51.288;12.390;2023-03-26T19:30:32;49144.09;;;-144.47;90.88
31585;BME280;18191;51.288;12.390;2023-03-26T19:35:24;49092.38;;;-144.47;90.30
31585;BME280;18191;51.288;12.390;2023-03-26T19:40:21;49120.25;;;-144.47;90.68
31585;BME280;18191;51.288;12.390;2023-03-26T19:45:19;49112.28;;;-144.47;90.82
31585;BME280;18191;51.288;12.390;2023-03-26T19:50:21;49148.09;;;-144.47;89.66
31585;BME280;18191;51.288;12.390;2023-03-26T19:55:21;49094.38;;;-144.47;86.79
31585;BME280;18191;51.288;12.390;2023-03-26T20:00:13;49100.34;;;-144.47;88.38
31585;BME280;18191;51.288;12.390;2023-03-26T20:05:03;49120.25;;;-144.47;90.94
31585;BME280;18191;51.288;12.390;2023-03-26T20:09:54;49112.28;;;-144.47;89.68
31585;BME280;18191;51.288;12.390;2023-03-26T20:14:44;49084.44;;;-144.47;88.42
31585;BME280;18191;51.288;12.390;2023-03-26T20:19:34;49110.28;;;-144.47;86.02
31585;BME280;18191;51.288;12.390;2023-03-26T20:24:25;49088.41;;;-144.47;87.50
31585;BME280;18191;51.288;12.390;2023-03-26T20:29:17;49092.38;;;-144.47;86.78
31585;BME280;18191;51.288;12.390;2023-03-26T20:34:19;49076.47;;;-144.47;86.76
31585;BME280;18191;51.288;12.390;2023-03-26T20:39:10;49108.31;;;-144.47;88.75
31585;BME280;18191;51.288;12.390;2023-03-26T20:44:01;49112.28;;;-144.47;90.75
31585;BME280;18191;51.288;12.390;2023-03-26T20:48:53;49140.13;;;-144.47;91.98
31585;BME280;18191;51.288;12.390;2023-03-26T20:53:45;49152.06;;;-144.47;92.34
31585;BME280;18191;51.288;12.390;2023-03-26T20:58:38;49104.31;;;-144.47;91.92
31585;BME280;18191;51.288;12.390;2023-03-26T21:03:29;49140.13;;;-144.47;93.17
31585;BME280;18191;51.288;12.390;2023-03-26T21:08:19;49142.13;;;-144.47;92.72
31585;BME280;18191;51.288;12.390;2023-03-26T21:13:12;49092.38;;;-144.47;92.46
31585;BME280;18191;51.288;12.390;2023-03-26T21:18:05;49114.28;;;-144.47;92.28
31585;BME280;18191;51.288;12.390;2023-03-26T21:23:15;49132.16;;;-144.47;92.98
31585;BME280;18191;51.288;12.390;2023-03-26T21:33:11;49096.38;;;-144.47;90.72
31585;BME280;18191;51.288;12.390;2023-03-26T21:38:03;49088.41;;;-144.47;90.57
31585;BME280;18191;51.288;12.390;2023-03-26T21:42:53;49112.28;;;-144.47;89.56
31585;BME280;18191;51.288;12.390;2023-03-26T21:47:45;49120.25;;;-144.47;90.73
31585;BME280;18191;51.288;12.390;2023-03-26T21:52:35;49098.34;;;-144.47;91.34
31585;BME280;18191;51.288;12.390;2023-03-26T21:57:38;49136.16;;;-144.47;91.38
31585;BME280;18191;51.288;12.390;2023-03-26T22:02:34;49086.41;;;-144.47;90.17
31585;BME280;18191;51.288;12.390;2023-03-26T22:07:33;49152.06;;;-144.47;92.57
31585;BME280;18191;51.288;12.390;2023-03-26T22:12:27;49124.22;;;-144.47;93.32
31585;BME280;18191;51.288;12.390;2023-03-26T22:17:17;49152.06;;;-144.47;93.96
31585;BME280;18191;51.288;12.390;2023-03-26T22:22:08;49120.25;;;-144.47;93.29
31585;BME280;18191;51.288;12.390;2023-03-26T22:26:59;49104.31;;;-144.47;91.56
31585;BME280;18191;51.288;12.390;2023-03-26T22:31:49;49154.06;;;-144.47;91.84
31585;BME280;18191;51.288;12.390;2023-03-26T22:36:40;49128.19;;;-144.47;92.31
31585;BME280;18191;51.288;12.390;2023-03-26T22:41:30;49124.22;;;-144.47;91.57
31585;BME280;18191;51.288;12.390;2023-03-26T22:46:20;49084.44;;;-144.47;89.89
31585;BME280;18191;51.288;12.390;2023-03-26T22:51:11;49088.41;;;-144.47;90.68
31585;BME280;18191;51.288;12.390;2023-03-26T22:56:01;49116.25;;;-144.47;87.49
31585;BME280;18191;51.288;12.390;2023-03-26T23:06:12;49072.50;;;-144.47;89.65
31585;BME280;18191;51.288;12.390;2023-03-26T23:11:13;49106.31;;;-144.47;89.08
31585;BME280;18191;51.288;12.390;2023-03-26T23:16:05;49136.16;;;-144.47;89.64
31585;BME280;18191;51.288;12.390;2023-03-26T23:20:56;49054.59;;;-144.47;89.05
31585;BME280;18191;51.288;12.390;2023-03-26T23:25:46;49116.25;;;-144.47;87.95
31585;BME280;18191;51.288;12.390;2023-03-26T23:30:36;49098.34;;;-144.47;86.34
31585;BME280;18191;51.288;12.390;2023-03-26T23:35:26;49088.41;;;-144.47;88.56
31585;BME280;18191;51.288;12.390;2023-03-26T23:40:17;49092.38;;;-144.47;90.46
31585;BME280;18191;51.288;12.390;2023-03-26T23:45:07;49104.31;;;-144.47;91.84
31585;BME280;18191;51.288;12.390;2023-03-26T23:49:57;49122.22;;;-144.47;89.74
31585;BME280;18191;51.288;12.390;2023-03-26T23:54:48;49100.34;;;-144.47;89.97
31585;BME280;18191;51.288;12.390;2023-03-26T23:59:38;49088.41;;;-144.47;89.58
